Time;durP1;ratioP1;P1;durP2;ratioP2;P2;SDS_P1;SDS_P2;PMS_P1;PMS_P2;Temp;Humidity;BMP_temperature;BMP_pressure;BME280_temperature;BME280_humidity;BME280_pressure;Samples;Min_cycle;Max_cycle;Signal;HPM_P1;HPM_P2
2024/04/08 00:01:14;;;;;;;42.53;4.07;;;5.80;99.90;;;;;;1901529;73;25212;-87
2024/04/08 00:06:42;;;;;;;37.03;4.53;;;5.90;99.90;;;;;;1934195;72;27086;-88
2024/04/08 00:09:30;;;;;;;40.10;4.10;;;5.80;99.90;;;;;;1905765;73;25722;-88
2024/04/08 00:12:19;;;;;;;35.27;4.33;;;5.70;99.90;;;;;;1908509;73;25239;-88
2024/04/08 00:15:10;;;;;;;33.43;4.23;;;5.50;99.90;;;;;;1915512;73;25720;-88
2024/04/08 00:17:59;;;;;;;42.03;4.60;;;5.50;99.90;;;;;;1935236;73;25816;-88
2024/04/08 00:20:47;;;;;;;42.27;4.90;;;5.50;99.90;;;;;;1933238;73;25185;-88
2024/04/08 00:23:36;;;;;;;40.90;4.43;;;5.60;99.90;;;;;;1919064;73;25732;-88
2024/04/08 00:26:24;;;;;;;35.40;4.07;;;5.70;99.90;;;;;;1897439;73;25296;-88
2024/04/08 00:29:13;;;;;;;29.47;3.90;;;5.80;99.90;;;;;;1894663;73;25585;-88
2024/04/08 00:32:02;;;;;;;26.97;3.23;;;5.90;99.90;;;;;;1901716;73;25296;-88
2024/04/08 00:37:34;;;;;;;40.87;4.60;;;6.10;99.90;;;;;;1924242;72;27060;-88
2024/04/08 00:40:22;;;;;;;32.40;3.83;;;6.10;99.90;;;;;;1831510;77;25215;-88
2024/04/08 00:45:56;;;;;;;34.83;4.87;;;6.20;99.90;;;;;;1962235;72;27560;-87
2024/04/08 00:51:26;;;;;;;37.70;3.80;;;6.20;99.90;;;;;;1952502;72;27501;-88
2024/04/08 00:56:59;;;;;;;38.63;4.10;;;6.10;99.90;;;;;;1928739;72;27077;-87
2024/04/08 00:59:49;;;;;;;39.53;3.77;;;6.10;99.90;;;;;;1907306;75;25158;-88
2024/04/08 01:02:38;;;;;;;40.37;4.83;;;6.10;99.90;;;;;;1864182;76;25250;-88
2024/04/08 01:05:27;;;;;;;26.23;3.67;;;6.10;99.90;;;;;;1885982;75;25283;-88
2024/04/08 01:08:16;;;;;;;35.77;3.80;;;6.00;99.90;;;;;;1905691;75;25390;-87
2024/04/08 01:11:05;;;;;;;35.63;3.70;;;5.90;99.90;;;;;;1836630;77;25292;-88
2024/04/08 01:16:33;;;;;;;24.77;3.37;;;5.90;99.90;;;;;;1944348;72;26929;-88
2024/04/08 01:19:23;;;;;;;28.63;3.43;;;6.00;99.90;;;;;;1941158;73;25722;-88
2024/04/08 01:24:55;;;;;;;28.43;3.30;;;5.80;99.90;;;;;;1904484;74;27152;-88
2024/04/08 01:27:44;;;;;;;29.17;4.63;;;5.80;99.90;;;;;;1859644;77;25262;-88
2024/04/08 01:30:32;;;;;;;28.43;3.53;;;6.00;99.90;;;;;;1852666;77;25817;-88
2024/04/08 01:33:21;;;;;;;23.57;3.70;;;6.00;99.90;;;;;;1841785;77;25230;-88
2024/04/08 01:36:11;;;;;;;26.23;3.57;;;6.00;99.90;;;;;;1850782;77;25244;-88
2024/04/08 01:39:00;;;;;;;33.03;3.57;;;6.10;99.90;;;;;;1848877;77;25226;-88
2024/04/08 01:41:49;;;;;;;23.70;3.17;;;6.20;99.90;;;;;;1789598;79;25212;-88
2024/04/08 01:44:38;;;;;;;32.07;3.47;;;6.20;99.90;;;;;;1840323;77;25344;-88
2024/04/08 01:47:26;;;;;;;28.57;3.33;;;6.30;99.90;;;;;;1857453;77;25251;-87
2024/04/08 01:50:16;;;;;;;29.87;3.47;;;6.30;99.90;;;;;;1857487;77;25677;-87
2024/04/08 01:53:05;;;;;;;21.50;3.20;;;6.30;99.90;;;;;;1860927;77;25243;-86
2024/04/08 01:58:39;;;;;;;34.40;3.67;;;6.20;99.90;;;;;;1924705;72;27476;-88
2024/04/08 02:01:28;;;;;;;35.53;3.53;;;6.20;99.90;;;;;;1895594;75;25644;-88
2024/04/08 02:06:57;;;;;;;24.47;3.33;;;6.10;99.90;;;;;;1940832;72;27488;-88
2024/04/08 02:09:45;;;;;;;24.97;3.50;;;6.20;99.90;;;;;;1901253;75;25333;-88
2024/04/08 02:12:33;;;;;;;29.30;3.23;;;6.10;99.90;;;;;;1898109;75;25756;-88
2024/04/08 02:15:22;;;;;;;25.43;3.10;;;6.10;99.90;;;;;;1902290;75;25246;-88
2024/04/08 02:18:10;;;;;;;26.50;3.27;;;6.10;99.90;;;;;;1884188;75;25259;-88
2024/04/08 02:20:59;;;;;;;28.87;3.33;;;6.10;99.90;;;;;;1889436;75;25786;-88
2024/04/08 02:23:49;;;;;;;24.27;3.07;;;6.10;99.90;;;;;;1911976;75;25170;-88
2024/04/08 02:26:38;;;;;;;27.40;3.30;;;6.10;99.90;;;;;;1900305;75;25166;-88
2024/04/08 02:29:26;;;;;;;29.63;3.50;;;6.10;99.90;;;;;;1886814;75;25793;-88
2024/04/08 02:32:15;;;;;;;26.23;2.93;;;6.10;99.90;;;;;;1846382;77;25266;-88
2024/04/08 02:37:45;;;;;;;25.93;3.20;;;6.10;99.90;;;;;;1939334;72;27486;-88
2024/04/08 02:40:34;;;;;;;22.80;3.13;;;6.20;99.90;;;;;;1861336;75;25756;-88
2024/04/08 02:43:23;;;;;;;20.47;2.53;;;6.40;99.90;;;;;;1858454;75;25277;-87
2024/04/08 02:48:52;;;;;;;22.17;3.40;;;6.10;99.90;;;;;;1933094;72;27071;-87
2024/04/08 02:51:40;;;;;;;24.17;3.10;;;5.90;99.90;;;;;;1908346;75;25245;-89
2024/04/08 02:57:09;;;;;;;25.97;3.57;;;5.80;99.90;;;;;;1938592;72;27087;-88
2024/04/08 02:59:58;;;;;;;18.50;2.60;;;5.80;99.90;;;;;;1904280;74;25310;-87
2024/04/08 03:02:46;;;;;;;23.23;3.30;;;5.80;99.90;;;;;;1882960;74;25228;-86
2024/04/08 03:05:35;;;;;;;21.40;3.60;;;5.80;99.90;;;;;;1913546;74;25238;-87
2024/04/08 03:08:23;;;;;;;23.83;3.27;;;5.80;99.90;;;;;;1905981;74;25217;-88
2024/04/08 03:11:12;;;;;;;26.57;3.30;;;5.80;99.90;;;;;;1905310;74;25320;-87
2024/04/08 03:14:01;;;;;;;24.33;3.37;;;5.80;99.90;;;;;;1903833;74;25279;-86
2024/04/08 03:19:59;;;;;;;17.50;3.00;;;5.50;99.90;;;;;;1994465;71;27049;-87
2024/04/08 03:22:48;;;;;;;24.23;3.40;;;5.50;99.90;;;;;;1958357;72;25198;-88
2024/04/08 03:25:36;;;;;;;23.27;2.83;;;5.50;99.90;;;;;;1982939;72;25333;-87
2024/04/08 03:31:06;;;;;;;13.80;2.40;;;5.50;99.90;;;;;;1923853;72;26873;-88
2024/04/08 03:33:54;;;;;;;25.13;3.10;;;5.50;99.90;;;;;;1950987;72;25154;-88
2024/04/08 03:36:43;;;;;;;22.00;2.93;;;5.80;99.90;;;;;;1929661;73;25338;-88
2024/04/08 03:42:10;;;;;;;17.40;2.80;;;6.00;99.90;;;;;;1956114;71;27418;-88
2024/04/08 03:44:59;;;;;;;20.63;2.63;;;5.90;99.90;;;;;;1957686;72;25198;-88
2024/04/08 03:47:47;;;;;;;18.43;2.53;;;5.80;99.90;;;;;;1931221;72;25779;-88
2024/04/08 03:50:35;;;;;;;23.37;2.70;;;5.70;99.90;;;;;;1948382;73;25239;-88
2024/04/08 03:53:25;;;;;;;19.10;2.33;;;5.70;99.90;;;;;;1938954;73;25668;-87
2024/04/08 03:58:55;;;;;;;12.13;2.70;;;5.70;99.90;;;;;;1962309;72;27492;-87
2024/04/08 04:01:43;;;;;;;21.30;2.47;;;5.60;99.90;;;;;;1937169;73;25314;-88
2024/04/08 04:04:32;;;;;;;17.23;2.67;;;5.70;99.90;;;;;;1927875;73;25157;-88
2024/04/08 04:10:04;;;;;;;17.07;3.03;;;5.70;99.90;;;;;;2015690;69;27525;-88
2024/04/08 04:12:50;;;;;;;20.20;2.40;;;5.80;99.90;;;;;;1976222;72;25264;-88
2024/04/08 04:15:38;;;;;;;17.97;2.73;;;5.80;99.90;;;;;;1982634;72;25737;-87
2024/04/08 04:18:26;;;;;;;21.87;2.50;;;5.70;99.90;;;;;;1990901;72;25252;-88
2024/04/08 04:21:15;;;;;;;21.23;3.00;;;5.70;99.90;;;;;;1993194;72;25262;-87
2024/04/08 04:24:03;;;;;;;15.83;2.50;;;5.60;99.90;;;;;;1974156;72;25291;-88
2024/04/08 04:26:52;;;;;;;16.00;2.30;;;5.70;99.90;;;;;;1909199;75;25168;-88
2024/04/08 04:29:41;;;;;;;20.60;2.77;;;5.70;99.90;;;;;;1980733;72;25226;-88
2024/04/08 04:32:29;;;;;;;28.80;3.00;;;5.70;99.90;;;;;;1982099;72;25185;-87
2024/04/08 04:37:59;;;;;;;28.73;3.10;;;5.50;99.90;;;;;;1938967;72;27444;-88
2024/04/08 04:40:48;;;;;;;18.07;2.93;;;5.30;99.90;;;;;;1894428;73;25192;-87
2024/04/08 04:43:36;;;;;;;20.80;2.40;;;5.30;99.90;;;;;;1869000;76;25215;-88
2024/04/08 04:46:25;;;;;;;12.17;2.43;;;5.30;99.90;;;;;;1883337;75;25895;-88
2024/04/08 04:49:14;;;;;;;13.97;2.27;;;5.30;99.90;;;;;;1907203;75;25621;-87
2024/04/08 04:52:02;;;;;;;13.07;2.53;;;5.40;99.90;;;;;;1847300;76;25742;-88
2024/04/08 04:57:31;;;;;;;13.03;2.43;;;5.40;99.90;;;;;;1938484;72;28328;-88
2024/04/08 05:00:25;;;;;;;14.23;3.07;;;5.40;99.90;;;;;;1905439;74;25249;-87
2024/04/08 05:03:09;;;;;;;14.30;2.47;;;5.40;99.90;;;;;;1885652;75;25236;-88
2024/04/08 05:08:39;;;;;;;20.60;2.47;;;5.30;99.90;;;;;;1929854;72;27052;-87
2024/04/08 05:11:28;;;;;;;17.20;2.40;;;5.30;99.90;;;;;;1909017;75;26470;-88
2024/04/08 05:14:16;;;;;;;14.40;2.43;;;5.30;99.90;;;;;;1905139;75;25220;-87
2024/04/08 05:17:06;;;;;;;8.33;2.40;;;5.20;99.90;;;;;;1900395;75;25708;-87
2024/04/08 05:22:39;;;;;;;13.93;2.40;;;5.00;99.90;;;;;;1915838;72;27621;-87
2024/04/08 05:28:09;;;;;;;12.87;1.87;;;4.90;99.90;;;;;;1959862;72;27511;-87
2024/04/08 05:30:58;;;;;;;14.67;3.07;;;4.80;99.90;;;;;;1943485;72;25314;-87
2024/04/08 05:33:49;;;;;;;12.00;2.47;;;4.80;99.90;;;;;;1943514;73;25224;-87
2024/04/08 05:36:39;;;;;;;11.90;2.90;;;5.00;99.90;;;;;;1917651;73;25279;-87
2024/04/08 05:39:27;;;;;;;19.73;2.57;;;5.10;99.90;;;;;;1921365;73;25221;-87
2024/04/08 05:42:16;;;;;;;11.80;2.30;;;5.20;99.90;;;;;;1933538;72;25685;-87
2024/04/08 05:45:05;;;;;;;12.90;2.30;;;5.20;99.90;;;;;;1883924;75;25206;-89
2024/04/08 05:47:54;;;;;;;15.53;2.80;;;5.20;99.90;;;;;;1846150;76;25647;-87
2024/04/08 05:50:44;;;;;;;25.87;2.60;;;5.40;99.90;;;;;;1899771;75;25194;-87
2024/04/08 05:56:13;;;;;;;12.97;2.17;;;5.70;99.90;;;;;;1957485;72;27354;-88
2024/04/08 05:59:01;;;;;;;10.80;2.47;;;5.80;99.90;;;;;;1968903;71;25926;-88
2024/04/08 06:01:50;;;;;;;13.73;2.67;;;5.80;99.90;;;;;;1891020;75;25255;-88
2024/04/08 06:07:23;;;;;;;15.93;2.50;;;5.90;99.90;;;;;;1955112;72;26866;-88
2024/04/08 06:10:12;;;;;;;16.83;2.77;;;6.00;99.90;;;;;;1926420;73;25255;-89
2024/04/08 06:13:00;;;;;;;19.77;2.60;;;5.90;99.90;;;;;;1944854;73;25304;-88
2024/04/08 06:15:48;;;;;;;12.07;2.33;;;5.80;99.90;;;;;;1943537;72;25746;-88
2024/04/08 06:18:37;;;;;;;19.40;2.60;;;5.80;99.90;;;;;;1939809;72;25684;-89
2024/04/08 06:21:25;;;;;;;14.13;2.90;;;5.70;99.90;;;;;;1951593;73;25215;-88
2024/04/08 06:24:14;;;;;;;12.03;2.67;;;5.60;99.90;;;;;;1937534;72;25154;-88
2024/04/08 06:27:03;;;;;;;14.23;2.73;;;5.70;99.90;;;;;;1920084;73;25253;-88
2024/04/08 06:29:51;;;;;;;19.40;2.03;;;6.00;99.90;;;;;;1938710;73;25283;-88
2024/04/08 06:32:41;;;;;;;19.83;3.17;;;6.10;99.90;;;;;;1943235;72;25209;-88
2024/04/08 06:35:30;;;;;;;18.07;2.70;;;5.80;99.90;;;;;;1950102;73;25221;-87
2024/04/08 06:38:19;;;;;;;10.13;2.33;;;5.40;99.90;;;;;;1946192;72;25148;-87
2024/04/08 06:43:49;;;;;;;14.47;2.30;;;6.40;99.90;;;;;;1954264;71;27641;-88
2024/04/08 06:46:37;;;;;;;14.13;2.53;;;6.70;99.90;;;;;;1937888;73;25209;-88
2024/04/08 06:49:26;;;;;;;8.57;2.47;;;7.00;99.90;;;;;;1930102;73;25221;-88
2024/04/08 06:52:15;;;;;;;15.90;2.43;;;7.30;99.90;;;;;;1945629;73;25150;-88
2024/04/08 06:55:06;;;;;;;13.57;2.00;;;7.60;99.90;;;;;;1922482;72;25207;-88
2024/04/08 06:57:54;;;;;;;14.40;2.40;;;7.60;99.90;;;;;;1918246;73;25314;-87
2024/04/08 07:00:42;;;;;;;13.83;2.37;;;7.30;99.90;;;;;;1922672;73;25610;-87
2024/04/08 07:03:32;;;;;;;17.70;2.63;;;7.10;99.90;;;;;;1927967;73;25295;-87
2024/04/08 07:09:01;;;;;;;12.57;2.33;;;7.40;99.90;;;;;;1940483;72;27147;-88
2024/04/08 07:11:50;;;;;;;14.47;2.97;;;7.30;99.90;;;;;;1886710;75;25641;-88
2024/04/08 07:14:38;;;;;;;17.80;2.70;;;7.30;99.90;;;;;;1901199;75;25301;-88
2024/04/08 07:17:28;;;;;;;12.73;1.90;;;7.40;99.90;;;;;;1895907;75;25194;-86
2024/04/08 07:22:56;;;;;;;13.03;2.37;;;7.60;99.90;;;;;;1925360;72;27546;-87
2024/04/08 07:28:25;;;;;;;15.97;2.73;;;7.50;99.90;;;;;;1934483;72;27101;-86
2024/04/08 07:31:14;;;;;;;13.30;1.80;;;7.50;99.90;;;;;;1892691;75;25241;-86
2024/04/08 07:34:03;;;;;;;15.07;2.57;;;7.60;99.90;;;;;;1888495;75;25680;-85
2024/04/08 07:36:51;;;;;;;12.73;2.53;;;7.70;99.90;;;;;;1888238;75;25252;-86
2024/04/08 07:39:40;;;;;;;16.87;2.77;;;7.60;99.90;;;;;;1840605;77;25733;-86
2024/04/08 07:42:28;;;;;;;15.70;2.67;;;7.60;99.90;;;;;;1902634;75;25282;-87
2024/04/08 07:45:17;;;;;;;14.70;2.20;;;7.70;99.90;;;;;;1902906;75;25241;-85
2024/04/08 07:50:45;;;;;;;15.93;2.63;;;8.00;99.90;;;;;;1941577;72;27666;-87
2024/04/08 07:56:13;;;;;;;20.53;2.47;;;8.20;99.90;;;;;;1936225;72;27110;-87
2024/04/08 08:01:45;;;;;;;20.53;2.80;;;8.10;99.90;;;;;;1927890;72;27027;-87
2024/04/08 08:04:34;;;;;;;14.77;2.87;;;8.10;99.90;;;;;;1894733;75;25686;-87
2024/04/08 08:10:09;;;;;;;16.80;2.30;;;8.20;99.90;;;;;;1942021;72;27387;-86
2024/04/08 08:12:57;;;;;;;15.93;2.50;;;8.50;99.90;;;;;;1925763;73;25225;-86
2024/04/08 08:15:54;;;;;;;14.90;2.40;;;8.70;99.90;;;;;;1940720;73;25310;-86
2024/04/08 08:18:42;;;;;;;23.50;2.83;;;9.00;99.90;;;;;;1924845;72;25215;-85
2024/04/08 08:21:31;;;;;;;11.07;2.13;;;8.90;99.90;;;;;;1936870;72;25692;-85
2024/04/08 08:24:20;;;;;;;21.77;2.90;;;8.70;99.90;;;;;;1934079;72;25329;-85
2024/04/08 08:27:09;;;;;;;18.43;2.70;;;8.70;99.90;;;;;;1933894;73;25225;-87
2024/04/08 08:29:57;;;;;;;10.97;2.73;;;8.90;99.90;;;;;;1874937;75;25323;-86
2024/04/08 08:35:25;;;;;;;19.20;3.80;;;9.70;99.90;;;;;;1940429;72;26997;-87
2024/04/08 08:41:01;;;;;;;14.13;2.50;;;9.40;99.90;;;;;;1935144;72;27087;-87
2024/04/08 08:43:50;;;;;;;12.73;2.23;;;9.40;99.90;;;;;;1866885;76;25177;-87
2024/04/08 08:46:39;;;;;;;16.17;2.40;;;9.60;99.90;;;;;;1914153;73;25237;-87
2024/04/08 08:52:11;;;;;;;17.40;2.70;;;9.70;99.90;;;;;;1923764;72;27711;-87
2024/04/08 08:55:00;;;;;;;13.53;2.77;;;10.00;99.90;;;;;;1888483;75;25344;-86
2024/04/08 08:57:48;;;;;;;20.53;2.87;;;10.20;99.90;;;;;;1873038;76;25241;-85
2024/04/08 09:03:21;;;;;;;11.60;2.23;;;10.90;99.90;;;;;;1936296;72;27508;-87
2024/04/08 09:08:51;;;;;;;15.87;2.73;;;11.90;99.90;;;;;;1958092;72;27031;-85
2024/04/08 09:11:47;;;;;;;14.57;3.33;;;12.20;99.90;;;;;;1941684;73;25290;-85
2024/04/08 09:14:36;;;;;;;19.73;2.50;;;12.20;99.90;;;;;;1917460;73;25251;-85
2024/04/08 09:20:12;;;;;;;19.37;2.60;;;11.60;99.90;;;;;;1951894;72;27121;-87
2024/04/08 09:23:01;;;;;;;12.70;2.30;;;11.20;99.90;;;;;;1939551;73;25757;-87
2024/04/08 09:25:50;;;;;;;15.97;2.67;;;10.70;99.90;;;;;;1917080;73;25209;-85
2024/04/08 09:28:39;;;;;;;16.63;2.50;;;10.70;99.90;;;;;;1916753;75;25280;-85
2024/04/08 09:31:29;;;;;;;17.57;2.90;;;10.90;99.90;;;;;;1916476;73;25636;-86
2024/04/08 09:34:19;;;;;;;16.33;2.60;;;11.10;99.90;;;;;;1916745;73;25167;-86
2024/04/08 09:39:52;;;;;;;19.77;2.57;;;10.90;99.90;;;;;;1950473;72;26959;-87
2024/04/08 09:42:42;;;;;;;18.27;2.90;;;11.10;99.90;;;;;;1937493;73;25281;-86
2024/04/08 09:48:14;;;;;;;15.93;3.20;;;11.30;99.90;;;;;;1923262;72;27501;-86
2024/04/08 09:51:05;;;;;;;16.27;2.73;;;11.10;99.90;;;;;;1899225;75;25218;-87
2024/04/08 09:53:53;;;;;;;14.07;2.30;;;11.10;99.90;;;;;;1911102;73;25273;-87
2024/04/08 09:56:43;;;;;;;18.87;3.20;;;11.30;99.90;;;;;;1886762;75;25322;-87
2024/04/08 09:59:32;;;;;;;14.53;2.60;;;11.50;99.90;;;;;;1893513;73;25252;-87
2024/04/08 10:05:06;;;;;;;15.93;2.70;;;11.70;99.90;;;;;;1943625;72;27050;-86
2024/04/08 10:07:55;;;;;;;14.00;2.90;;;11.50;99.90;;;;;;1904630;73;25693;-87
2024/04/08 10:10:44;;;;;;;17.43;2.60;;;11.40;99.90;;;;;;1909872;74;25226;-88
2024/04/08 10:13:34;;;;;;;22.83;2.60;;;11.50;99.90;;;;;;1903984;74;25303;-88
2024/04/08 10:16:23;;;;;;;19.10;3.07;;;11.50;99.90;;;;;;1903686;74;25224;-86
2024/04/08 10:19:12;;;;;;;21.23;3.00;;;11.80;99.90;;;;;;1903997;74;25233;-88
2024/04/08 10:22:04;;;;;;;15.93;2.53;;;12.10;99.90;;;;;;1903664;74;25857;-87
2024/04/08 10:24:53;;;;;;;13.87;2.73;;;12.10;99.90;;;;;;1905379;74;25603;-86
2024/04/08 10:27:41;;;;;;;15.53;2.50;;;12.00;99.90;;;;;;1909473;74;25663;-87
2024/04/08 10:30:32;;;;;;;16.87;2.80;;;12.40;99.90;;;;;;1913293;74;25817;-85
2024/04/08 10:33:22;;;;;;;20.87;2.90;;;12.40;99.90;;;;;;1905786;74;25206;-87
2024/04/08 10:36:11;;;;;;;12.13;2.33;;;12.00;99.90;;;;;;1907525;74;25251;-86
2024/04/08 10:39:08;;;;;;;14.27;2.53;;;12.10;99.90;;;;;;1910732;74;25276;-87
2024/04/08 10:41:52;;;;;;;20.50;3.00;;;12.20;99.90;;;;;;1904705;74;25303;-88
2024/04/08 10:47:19;;;;;;;25.67;3.00;;;12.70;99.90;;;;;;1948754;72;27015;-88
2024/04/08 10:50:10;;;;;;;24.77;2.73;;;12.60;99.90;;;;;;1918483;73;25730;-86
2024/04/08 10:52:59;;;;;;;16.07;2.50;;;12.60;99.90;;;;;;1917420;72;25228;-87
2024/04/08 10:58:29;;;;;;;19.07;2.63;;;12.50;99.90;;;;;;1947473;72;26585;-87
2024/04/08 11:01:19;;;;;;;11.93;2.70;;;12.00;99.90;;;;;;1939463;73;25729;-87
2024/04/08 11:06:52;;;;;;;20.70;2.90;;;12.40;99.90;;;;;;1926731;72;26994;-87
2024/04/08 11:09:41;;;;;;;29.13;3.37;;;12.50;99.90;;;;;;1857796;76;25345;-86
2024/04/08 11:15:16;;;;;;;18.93;2.53;;;12.60;99.90;;;;;;1962828;72;27063;-86
2024/04/08 11:20:45;;;;;;;14.30;2.50;;;12.70;99.90;;;;;;1950311;72;27013;-88
2024/04/08 11:23:33;;;;;;;17.80;2.80;;;12.80;99.90;;;;;;1916425;73;25339;-88
2024/04/08 11:26:24;;;;;;;15.67;2.53;;;12.70;99.90;;;;;;1926621;73;25221;-87
2024/04/08 11:29:13;;;;;;;14.00;2.73;;;12.50;99.90;;;;;;1916666;73;25173;-86
2024/04/08 11:32:01;;;;;;;17.13;2.87;;;12.40;99.90;;;;;;1931010;73;25270;-86
2024/04/08 11:34:50;;;;;;;18.77;3.00;;;12.20;99.90;;;;;;1938622;73;25236;-86
2024/04/08 11:37:39;;;;;;;19.50;2.80;;;12.10;99.90;;;;;;1909203;75;25220;-86
2024/04/08 11:40:28;;;;;;;22.87;3.17;;;11.90;99.90;;;;;;1941480;73;25344;-86
2024/04/08 11:43:17;;;;;;;17.67;2.83;;;12.20;99.90;;;;;;1928075;73;25287;-86
2024/04/08 11:46:06;;;;;;;21.70;3.50;;;12.10;99.90;;;;;;1922790;73;25704;-86
2024/04/08 11:48:55;;;;;;;19.43;3.00;;;12.20;99.90;;;;;;1918053;73;25308;-86
2024/04/08 11:51:44;;;;;;;23.07;3.27;;;12.30;99.90;;;;;;1947715;73;25173;-86
2024/04/08 11:57:14;;;;;;;19.73;2.97;;;12.40;99.90;;;;;;1930013;72;26958;-87
2024/04/08 12:00:03;;;;;;;15.97;3.00;;;12.20;99.90;;;;;;1910019;73;25364;-87
2024/04/08 12:05:31;;;;;;;22.77;2.97;;;12.00;99.90;;;;;;1938516;72;27538;-85
2024/04/08 12:08:20;;;;;;;23.37;3.20;;;11.80;99.90;;;;;;1895840;73;25174;-87
2024/04/08 12:11:11;;;;;;;20.33;3.07;;;11.70;99.90;;;;;;1853363;76;25279;-88
2024/04/08 12:14:00;;;;;;;14.63;2.67;;;11.60;99.90;;;;;;1898409;73;25212;-87
2024/04/08 12:16:48;;;;;;;28.30;2.83;;;11.80;99.90;;;;;;1885251;75;25354;-87
2024/04/08 12:19:36;;;;;;;16.80;2.90;;;12.00;99.90;;;;;;1897152;75;25211;-87
2024/04/08 12:22:25;;;;;;;27.30;3.23;;;12.20;99.90;;;;;;1886364;75;25628;-86
2024/04/08 12:25:13;;;;;;;18.40;3.00;;;12.50;99.90;;;;;;1907110;73;25233;-86
2024/04/08 12:28:02;;;;;;;23.00;3.37;;;12.70;99.90;;;;;;1921202;73;25231;-86
2024/04/08 12:30:50;;;;;;;19.23;3.50;;;12.70;99.90;;;;;;1886472;75;25296;-86
2024/04/08 12:33:39;;;;;;;22.73;3.43;;;12.60;99.90;;;;;;1854951;75;25735;-86
2024/04/08 12:36:28;;;;;;;19.07;3.03;;;12.50;99.90;;;;;;1866502;75;25225;-86
2024/04/08 12:39:17;;;;;;;24.57;3.07;;;12.40;99.90;;;;;;1915385;73;25679;-86
2024/04/08 12:42:07;;;;;;;18.60;2.90;;;12.40;99.90;;;;;;1910910;74;25274;-86
2024/04/08 12:47:38;;;;;;;21.83;2.77;;;12.70;99.90;;;;;;1935057;72;27501;-87
2024/04/08 12:50:25;;;;;;;21.70;3.13;;;12.70;99.90;;;;;;1910436;74;25278;-87
2024/04/08 12:53:14;;;;;;;22.37;3.60;;;12.50;99.90;;;;;;1918159;74;25675;-86
2024/04/08 12:56:04;;;;;;;24.07;3.40;;;12.10;99.90;;;;;;1888779;75;25314;-87
2024/04/08 12:58:56;;;;;;;29.33;3.03;;;12.00;99.90;;;;;;1873467;74;25251;-87
2024/04/08 13:01:44;;;;;;;15.00;2.53;;;11.70;99.90;;;;;;1887317;74;25263;-86
2024/04/08 13:04:32;;;;;;;16.17;2.90;;;11.80;99.90;;;;;;1883801;75;25323;-87
2024/04/08 13:07:21;;;;;;;21.20;2.80;;;12.00;99.90;;;;;;1893129;75;25698;-87
2024/04/08 13:10:09;;;;;;;15.10;2.63;;;12.30;99.90;;;;;;1891227;75;25753;-86
2024/04/08 13:12:58;;;;;;;19.57;2.97;;;12.50;99.90;;;;;;1876907;75;25756;-87
2024/04/08 13:15:47;;;;;;;19.67;2.93;;;12.80;99.90;;;;;;1884121;74;25627;-86
2024/04/08 13:21:14;;;;;;;19.00;3.73;;;12.70;99.90;;;;;;1952361;72;27575;-85
2024/04/08 13:26:48;;;;;;;19.23;2.97;;;13.10;99.90;;;;;;1926528;72;27541;-85
2024/04/08 13:29:36;;;;;;;21.53;3.57;;;13.30;99.90;;;;;;1904761;73;25739;-88
2024/04/08 13:32:24;;;;;;;25.07;3.17;;;13.50;99.90;;;;;;1919393;74;25242;-85
2024/04/08 13:35:13;;;;;;;22.53;3.93;;;13.80;99.90;;;;;;1929257;73;25268;-87
2024/04/08 13:38:02;;;;;;;26.80;3.20;;;13.60;99.90;;;;;;1904296;74;25319;-85
2024/04/08 13:40:51;;;;;;;23.57;3.10;;;13.70;99.90;;;;;;1919293;74;25231;-87
2024/04/08 13:43:40;;;;;;;24.93;3.33;;;13.60;99.90;;;;;;1909793;73;25621;-87
2024/04/08 13:46:29;;;;;;;19.90;2.97;;;13.60;99.90;;;;;;1915580;74;25541;-87
2024/04/08 13:49:18;;;;;;;14.87;2.80;;;13.60;99.90;;;;;;1907570;73;25210;-87
2024/04/08 13:52:09;;;;;;;26.53;3.20;;;13.50;99.90;;;;;;1922115;74;25238;-87
2024/04/08 13:54:57;;;;;;;17.70;2.60;;;13.30;99.90;;;;;;1904943;74;25269;-87
2024/04/08 13:57:46;;;;;;;17.77;2.87;;;13.10;99.90;;;;;;1889301;75;25259;-87
2024/04/08 14:00:34;;;;;;;21.33;2.83;;;12.80;99.90;;;;;;1892217;75;25179;-87
2024/04/08 14:06:09;;;;;;;15.73;2.90;;;12.10;99.90;;;;;;1963510;72;27014;-87
2024/04/08 14:08:58;;;;;;;20.43;3.27;;;12.10;99.90;;;;;;1947571;73;25751;-85
2024/04/08 14:11:47;;;;;;;10.87;2.80;;;12.20;99.90;;;;;;1916076;73;25380;-86
2024/04/08 14:14:36;;;;;;;15.50;3.20;;;12.30;99.90;;;;;;1921832;72;25276;-85
2024/04/08 14:17:25;;;;;;;18.00;2.83;;;12.00;99.90;;;;;;1968188;72;25881;-86
2024/04/08 14:20:14;;;;;;;14.97;2.90;;;12.00;99.90;;;;;;1922354;72;25855;-86
2024/04/08 14:23:02;;;;;;;15.97;3.07;;;12.10;99.90;;;;;;1927713;73;25230;-86
2024/04/08 14:25:51;;;;;;;16.80;2.40;;;12.10;99.90;;;;;;1937924;72;25280;-86
2024/04/08 14:28:40;;;;;;;18.63;2.80;;;12.30;99.90;;;;;;1921955;72;25277;-86
2024/04/08 14:34:13;;;;;;;28.77;2.67;;;12.40;99.90;;;;;;1977476;71;27096;-86
2024/04/08 14:37:02;;;;;;;19.07;2.50;;;12.40;99.90;;;;;;1942103;73;25754;-85
2024/04/08 14:39:50;;;;;;;17.37;2.73;;;12.40;99.90;;;;;;1928449;73;25191;-87
2024/04/08 14:45:21;;;;;;;16.00;2.30;;;12.70;99.90;;;;;;1939867;72;26987;-87
2024/04/08 14:50:55;;;;;;;17.27;2.83;;;12.80;99.90;;;;;;1948020;72;27119;-86
2024/04/08 14:56:23;;;;;;;23.00;3.07;;;12.70;99.90;;;;;;1949070;72;27070;-87
2024/04/08 14:59:12;;;;;;;18.90;2.73;;;12.30;99.90;;;;;;1898857;74;25166;-86
2024/04/08 15:02:01;;;;;;;18.40;3.17;;;12.00;99.90;;;;;;1904798;75;25295;-86
2024/04/08 15:04:50;;;;;;;23.23;2.93;;;12.00;99.90;;;;;;1912621;75;25170;-88
2024/04/08 15:07:39;;;;;;;18.57;2.43;;;11.90;99.90;;;;;;1911761;75;25690;-86
2024/04/08 15:10:28;;;;;;;12.73;2.47;;;11.70;99.90;;;;;;1844956;77;25288;-86
2024/04/08 15:13:16;;;;;;;22.10;2.83;;;11.70;99.90;;;;;;1884580;75;25243;-86
2024/04/08 15:16:06;;;;;;;20.60;2.93;;;11.60;99.90;;;;;;1885776;75;25299;-88
2024/04/08 15:18:54;;;;;;;15.03;3.10;;;11.70;99.90;;;;;;1901275;75;25233;-89
2024/04/08 15:24:23;;;;;;;18.80;2.80;;;11.40;99.90;;;;;;1933082;72;27066;-88
2024/04/08 15:29:53;;;;;;;25.67;3.10;;;10.80;99.90;;;;;;1937821;72;27146;-89
2024/04/08 15:32:42;;;;;;;21.33;2.83;;;10.70;99.90;;;;;;1902348;75;25704;-88
2024/04/08 15:35:31;;;;;;;17.77;2.70;;;10.60;99.90;;;;;;1885222;75;25297;-89
2024/04/08 15:38:20;;;;;;;18.80;2.67;;;10.70;99.90;;;;;;1912154;75;25264;-87
2024/04/08 15:41:08;;;;;;;24.77;3.00;;;10.90;99.90;;;;;;1897708;74;25168;-87
2024/04/08 15:43:57;;;;;;;19.73;3.30;;;11.10;99.90;;;;;;1895691;75;25714;-88
2024/04/08 15:46:45;;;;;;;23.37;3.10;;;11.00;99.90;;;;;;1909893;75;25197;-87
2024/04/08 15:49:34;;;;;;;16.97;2.67;;;10.90;99.90;;;;;;1894729;75;25211;-87
2024/04/08 15:52:22;;;;;;;20.43;3.03;;;10.70;99.90;;;;;;1888634;75;25227;-86
2024/04/08 15:55:11;;;;;;;19.93;2.63;;;10.70;99.90;;;;;;1868419;76;25370;-87
2024/04/08 16:00:40;;;;;;;15.73;2.33;;;10.40;99.90;;;;;;1932670;72;27047;-89
2024/04/08 16:03:31;;;;;;;28.10;2.80;;;10.30;99.90;;;;;;1907023;73;25287;-89
2024/04/08 16:06:19;;;;;;;19.40;2.70;;;10.10;99.90;;;;;;1865651;75;25259;-89
2024/04/08 16:12:00;;;;;;;19.17;3.00;;;10.30;99.90;;;;;;1961793;72;27167;-89
2024/04/08 16:14:48;;;;;;;20.27;2.10;;;10.50;99.90;;;;;;1921538;73;25297;-89
2024/04/08 16:17:36;;;;;;;21.77;2.73;;;10.70;99.90;;;;;;1917757;73;25292;-89
2024/04/08 16:20:26;;;;;;;19.80;3.50;;;10.70;99.90;;;;;;1927970;73;25172;-89
2024/04/08 16:23:17;;;;;;;16.23;2.60;;;10.60;99.90;;;;;;1916915;73;25672;-89
2024/04/08 16:26:07;;;;;;;19.87;2.60;;;10.60;99.90;;;;;;1925376;73;25278;-89
2024/04/08 16:28:59;;;;;;;22.67;2.53;;;10.60;99.90;;;;;;1930336;73;25230;-89
2024/04/08 16:31:49;;;;;;;21.77;2.70;;;10.60;99.90;;;;;;1919305;73;25323;-89
2024/04/08 16:34:43;;;;;;;15.70;2.87;;;10.70;99.90;;;;;;1927993;73;25160;-89
2024/04/08 16:37:34;;;;;;;13.33;2.73;;;10.60;99.90;;;;;;1938554;73;25316;-89
2024/04/08 16:43:03;;;;;;;23.10;2.73;;;10.30;99.90;;;;;;1936069;72;27153;-87
2024/04/08 16:48:42;;;;;;;20.93;2.63;;;10.30;99.90;;;;;;1950859;72;27142;-89
2024/04/08 16:54:11;;;;;;;24.00;3.23;;;9.90;99.90;;;;;;1929153;72;27620;-87
2024/04/08 16:57:00;;;;;;;23.60;3.20;;;9.90;99.90;;;;;;1923597;72;25720;-88
2024/04/08 16:59:48;;;;;;;26.53;3.00;;;9.90;99.90;;;;;;1930079;72;25664;-88
2024/04/08 17:02:38;;;;;;;25.73;3.23;;;9.80;99.90;;;;;;1922060;74;25163;-87
2024/04/08 17:08:07;;;;;;;19.87;3.23;;;9.70;99.90;;;;;;1948540;72;27069;-88
2024/04/08 17:11:00;;;;;;;23.53;3.17;;;9.70;99.90;;;;;;1919987;73;25399;-87
2024/04/08 17:13:47;;;;;;;29.67;3.43;;;9.90;99.90;;;;;;1921658;73;25345;-87
2024/04/08 17:16:35;;;;;;;25.23;2.93;;;9.90;99.90;;;;;;1927127;73;25245;-88
2024/04/08 17:19:23;;;;;;;26.63;3.50;;;9.80;99.90;;;;;;1939981;73;25286;-89
2024/04/08 17:25:04;;;;;;;22.67;2.90;;;9.50;99.90;;;;;;1951424;72;26696;-88
2024/04/08 17:27:53;;;;;;;23.93;3.13;;;9.50;99.90;;;;;;1922991;73;25259;-89
2024/04/08 17:30:42;;;;;;;19.30;3.40;;;9.50;99.90;;;;;;1944434;73;25217;-88